Time;durP1;ratioP1;P1;durP2;ratioP2;P2;SDS_P1;SDS_P2;PMS_P1;PMS_P2;Temp;Humidity;BMP_temperature;BMP_pressure;BME280_temperature;BME280_humidity;BME280_pressure;Samples;Min_cycle;Max_cycle;Signal;HPM_P1;HPM_P2
2021/12/23 00:00:36;;;;;;;13.45;7.88;;;-1.90;99.90;;;;;;5104656;28;20043;-65
2021/12/23 00:03:03;;;;;;;11.98;7.78;;;-1.90;99.90;;;;;;5101220;28;20044;-65
2021/12/23 00:05:28;;;;;;;12.75;7.20;;;-1.90;99.90;;;;;;5099554;28;20130;-65
2021/12/23 00:07:54;;;;;;;12.57;8.43;;;-1.80;99.90;;;;;;5102085;28;20135;-65
2021/12/23 00:10:20;;;;;;;13.80;9.10;;;-1.80;99.90;;;;;;5101741;28;20056;-65
2021/12/23 00:12:46;;;;;;;14.13;9.43;;;-1.80;99.90;;;;;;5096131;28;20413;-65
2021/12/23 00:15:37;;;;;;;16.08;10.30;;;-1.80;99.90;;;;;;5110312;28;20397;-65
2021/12/23 00:18:42;;;;;;;11.77;7.72;;;-1.80;99.90;;;;;;5092443;28;20052;-66
2021/12/23 00:23:53;;;;;;;18.73;9.48;;;-1.70;99.90;;;;;;5087741;28;20056;-65
2021/12/23 00:26:19;;;;;;;12.40;8.85;;;-1.70;99.90;;;;;;5087237;28;20808;-65
2021/12/23 00:28:45;;;;;;;13.68;9.23;;;-1.70;99.90;;;;;;5087570;28;20071;-65
2021/12/23 00:31:10;;;;;;;13.10;7.78;;;-1.60;99.90;;;;;;5096754;27;20063;-65
2021/12/23 00:33:39;;;;;;;12.45;8.55;;;-1.60;99.90;;;;;;5102585;28;20047;-65
2021/12/23 00:36:05;;;;;;;15.40;7.85;;;-1.60;99.90;;;;;;5111331;28;20073;-65
2021/12/23 00:38:40;;;;;;;13.45;8.18;;;-1.60;99.90;;;;;;5106572;28;20040;-65
2021/12/23 00:41:06;;;;;;;10.38;7.45;;;-1.60;99.90;;;;;;5100088;28;20395;-65
2021/12/23 00:43:32;;;;;;;11.25;8.05;;;-1.60;99.90;;;;;;5095181;28;20051;-65
2021/12/23 00:45:59;;;;;;;17.80;8.68;;;-1.60;99.90;;;;;;5104331;28;20039;-65
2021/12/23 00:48:25;;;;;;;14.23;8.60;;;-1.60;99.90;;;;;;5100089;28;20542;-65
2021/12/23 00:50:51;;;;;;;15.15;9.18;;;-1.60;99.90;;;;;;5098368;28;20058;-65
2021/12/23 00:53:19;;;;;;;13.35;8.70;;;-1.60;99.90;;;;;;5105777;28;20090;-65
2021/12/23 00:55:52;;;;;;;15.30;8.07;;;-1.60;99.90;;;;;;5106923;28;20126;-65
2021/12/23 00:58:18;;;;;;;13.60;8.98;;;-1.60;99.90;;;;;;5101565;28;20127;-65
2021/12/23 01:00:45;;;;;;;14.32;9.35;;;-1.60;99.90;;;;;;5094889;28;20039;-65
2021/12/23 01:03:10;;;;;;;13.18;8.80;;;-1.50;99.90;;;;;;5091199;28;20059;-65
2021/12/23 01:05:36;;;;;;;13.98;9.15;;;-1.50;99.90;;;;;;5091515;28;20040;-64
2021/12/23 01:08:03;;;;;;;12.63;8.23;;;-1.50;99.90;;;;;;5107446;28;20048;-64
2021/12/23 01:10:29;;;;;;;14.15;7.82;;;-1.50;99.90;;;;;;5110182;28;20057;-64
2021/12/23 01:13:02;;;;;;;14.10;8.48;;;-1.50;99.90;;;;;;5111779;28;20153;-64
2021/12/23 01:18:00;;;;;;;16.63;8.68;;;-1.40;99.90;;;;;;5110428;28;19926;-64
2021/12/23 01:20:31;;;;;;;14.18;8.95;;;-1.40;99.90;;;;;;5110661;28;20066;-64
2021/12/23 01:23:01;;;;;;;14.23;7.38;;;-1.40;99.90;;;;;;5109978;28;20055;-64
2021/12/23 01:25:28;;;;;;;14.52;8.25;;;-1.30;99.90;;;;;;5110358;28;20130;-64
2021/12/23 01:27:54;;;;;;;13.55;8.95;;;-1.30;99.90;;;;;;5111821;28;20055;-64
2021/12/23 01:30:20;;;;;;;15.40;9.38;;;-1.30;99.90;;;;;;5111005;28;20130;-64
2021/12/23 01:32:47;;;;;;;11.95;7.95;;;-1.30;99.90;;;;;;5111460;28;20126;-64
2021/12/23 01:35:14;;;;;;;15.88;9.82;;;-1.20;99.90;;;;;;5111741;28;20055;-64
2021/12/23 01:37:40;;;;;;;17.83;9.93;;;-1.20;99.90;;;;;;5110654;28;20132;-64
2021/12/23 01:40:07;;;;;;;21.08;11.68;;;-1.20;99.90;;;;;;5110135;28;20085;-64
2021/12/23 01:42:32;;;;;;;18.90;10.40;;;-1.20;99.90;;;;;;5108414;28;20044;-64
2021/12/23 01:44:58;;;;;;;13.75;9.65;;;-1.10;99.90;;;;;;5091569;28;20052;-64
2021/12/23 01:47:24;;;;;;;23.60;11.68;;;-1.20;99.90;;;;;;5101991;28;20048;-64
2021/12/23 01:49:50;;;;;;;15.65;9.65;;;-1.20;99.90;;;;;;5095183;28;20083;-64
2021/12/23 01:52:16;;;;;;;15.57;9.40;;;-1.20;99.90;;;;;;5096251;28;20067;-64
2021/12/23 01:54:42;;;;;;;18.63;11.80;;;-1.20;99.90;;;;;;5101489;28;20052;-64
2021/12/23 01:57:08;;;;;;;18.30;10.85;;;-1.10;99.90;;;;;;5104833;28;20062;-63
2021/12/23 01:59:34;;;;;;;21.67;12.85;;;-1.10;99.90;;;;;;5110411;28;20126;-64
2021/12/23 02:02:00;;;;;;;23.50;12.48;;;-1.00;99.90;;;;;;5109751;28;20122;-64
2021/12/23 02:04:25;;;;;;;18.38;10.60;;;-0.80;99.90;;;;;;5111284;28;20054;-64
2021/12/23 02:06:51;;;;;;;14.38;10.18;;;-1.00;99.90;;;;;;5100352;28;20525;-64
2021/12/23 02:09:18;;;;;;;17.98;10.70;;;-1.00;99.90;;;;;;5101392;28;20437;-64
2021/12/23 02:11:44;;;;;;;19.70;11.23;;;-1.00;99.90;;;;;;5098960;28;20083;-64
2021/12/23 02:14:10;;;;;;;19.30;10.18;;;-1.00;99.90;;;;;;5100366;28;20056;-64
2021/12/23 02:16:35;;;;;;;17.25;10.35;;;-1.00;99.90;;;;;;5090363;28;20062;-64
2021/12/23 02:19:04;;;;;;;12.75;9.23;;;-1.00;99.90;;;;;;5105643;28;20078;-64
2021/12/23 02:21:29;;;;;;;13.82;9.57;;;-1.00;99.90;;;;;;5112341;28;20142;-64
2021/12/23 02:23:55;;;;;;;17.23;11.32;;;-1.00;99.90;;;;;;5115112;28;20153;-64
2021/12/23 02:26:21;;;;;;;17.75;10.52;;;-1.00;99.90;;;;;;5114575;28;20042;-64
2021/12/23 02:28:46;;;;;;;16.45;9.32;;;-1.00;99.90;;;;;;5114967;28;20101;-64
2021/12/23 02:31:12;;;;;;;13.95;9.60;;;-0.90;99.90;;;;;;5113896;28;20047;-64
2021/12/23 02:33:37;;;;;;;17.63;9.98;;;-1.00;99.90;;;;;;5113062;28;20475;-64
2021/12/23 02:36:03;;;;;;;15.65;9.38;;;-0.90;99.90;;;;;;5113597;28;20517;-64
2021/12/23 02:38:29;;;;;;;19.27;10.88;;;-0.90;99.90;;;;;;5113649;28;20078;-65
2021/12/23 02:40:55;;;;;;;18.05;10.65;;;-1.00;99.90;;;;;;5112842;28;20052;-64
2021/12/23 02:43:23;;;;;;;16.58;9.65;;;-0.90;99.90;;;;;;5113508;28;20051;-64
2021/12/23 02:45:51;;;;;;;14.25;9.10;;;-0.90;99.90;;;;;;5113214;28;20048;-64
2021/12/23 02:48:21;;;;;;;18.58;10.52;;;-0.90;99.90;;;;;;5114091;28;20123;-64
2021/12/23 02:50:49;;;;;;;16.13;10.23;;;-0.90;99.90;;;;;;5114379;28;20043;-64
2021/12/23 02:53:15;;;;;;;16.80;10.93;;;-0.90;99.90;;;;;;5114895;28;20055;-64
2021/12/23 02:55:40;;;;;;;17.40;10.05;;;-0.90;99.90;;;;;;5112689;28;20405;-64
2021/12/23 02:58:06;;;;;;;18.67;10.93;;;-0.90;99.90;;;;;;5114679;28;20047;-64
2021/12/23 03:00:33;;;;;;;19.65;11.27;;;-0.60;99.90;;;;;;5114360;28;20032;-64
2021/12/23 03:02:59;;;;;;;16.15;10.63;;;-0.90;99.90;;;;;;5112472;28;20075;-64
2021/12/23 03:05:25;;;;;;;17.55;10.88;;;-0.90;99.90;;;;;;5114245;28;20071;-64
2021/12/23 03:07:51;;;;;;;18.23;11.20;;;-0.90;99.90;;;;;;5114427;28;20043;-64
2021/12/23 03:10:16;;;;;;;17.95;10.77;;;-0.90;99.90;;;;;;5113698;28;20075;-64
2021/12/23 03:12:42;;;;;;;18.50;11.63;;;-0.90;99.90;;;;;;5113056;28;20054;-64
2021/12/23 03:15:08;;;;;;;17.65;10.13;;;-0.90;99.90;;;;;;5112645;28;20047;-64
2021/12/23 03:17:34;;;;;;;16.60;10.45;;;-0.90;99.90;;;;;;5113152;28;20816;-64
2021/12/23 03:20:00;;;;;;;18.33;11.18;;;-0.90;99.90;;;;;;5111672;28;20063;-64
2021/12/23 03:22:26;;;;;;;17.88;11.57;;;-0.90;99.90;;;;;;5112415;28;20461;-64
2021/12/23 03:24:52;;;;;;;14.88;9.80;;;-0.90;99.90;;;;;;5112834;28;20212;-64
2021/12/23 03:27:17;;;;;;;18.35;11.88;;;-0.90;99.90;;;;;;5111362;28;20054;-64
2021/12/23 03:29:43;;;;;;;18.23;11.70;;;-0.90;99.90;;;;;;5111680;28;20126;-64
2021/12/23 03:32:09;;;;;;;16.73;9.90;;;-0.90;99.90;;;;;;5128288;27;20164;-65
2021/12/23 03:34:34;;;;;;;18.60;10.77;;;-0.90;99.90;;;;;;5112431;28;20055;-64
2021/12/23 03:37:00;;;;;;;13.60;9.40;;;-0.90;99.90;;;;;;5112229;28;20035;-64
2021/12/23 03:39:26;;;;;;;16.38;11.98;;;-0.90;99.90;;;;;;5112911;28;20443;-64
2021/12/23 03:41:52;;;;;;;16.17;10.32;;;-0.90;99.90;;;;;;5112525;28;20367;-64
2021/12/23 03:44:17;;;;;;;16.55;10.38;;;-0.90;99.90;;;;;;5111887;28;20105;-64
2021/12/23 03:46:43;;;;;;;17.38;10.75;;;-0.80;99.90;;;;;;5112306;28;20044;-65
2021/12/23 03:49:09;;;;;;;16.92;10.30;;;-0.80;99.90;;;;;;5112440;28;20064;-64
2021/12/23 03:51:35;;;;;;;14.15;10.00;;;-0.80;99.90;;;;;;5110367;28;20391;-65
2021/12/23 03:54:02;;;;;;;17.48;10.60;;;-0.80;99.90;;;;;;5111163;28;20490;-65
2021/12/23 03:56:27;;;;;;;20.73;11.65;;;-0.80;99.90;;;;;;5111110;28;20040;-65
2021/12/23 03:58:54;;;;;;;19.75;12.10;;;-0.80;99.90;;;;;;5109976;28;20065;-65
2021/12/23 04:01:22;;;;;;;15.82;10.32;;;-0.80;99.90;;;;;;5112441;28;20036;-65
2021/12/23 04:03:49;;;;;;;27.67;12.52;;;-0.80;99.90;;;;;;5110721;28;20409;-65
2021/12/23 04:06:15;;;;;;;18.80;11.32;;;-0.80;99.90;;;;;;5111890;28;20122;-65
2021/12/23 04:08:40;;;;;;;19.88;10.85;;;-0.70;99.90;;;;;;5110921;28;20122;-65
2021/12/23 04:11:06;;;;;;;18.85;11.70;;;-0.80;99.90;;;;;;5110905;28;20096;-65
2021/12/23 04:13:31;;;;;;;19.67;11.40;;;-0.70;99.90;;;;;;5127267;28;20097;-65
2021/12/23 04:15:57;;;;;;;18.05;10.98;;;-0.80;99.90;;;;;;5112118;28;20089;-65
2021/12/23 04:18:22;;;;;;;17.35;10.82;;;-0.70;99.90;;;;;;5076388;28;1016271;-65
2021/12/23 04:20:54;;;;;;;17.50;10.25;;;-0.70;99.90;;;;;;5112951;28;20051;-65
2021/12/23 04:23:25;;;;;;;15.88;10.23;;;-0.80;99.90;;;;;;5111692;28;20127;-65
2021/12/23 04:25:51;;;;;;;16.95;10.90;;;-0.70;99.90;;;;;;5110748;28;20505;-65
2021/12/23 04:28:18;;;;;;;17.40;10.25;;;-0.70;99.90;;;;;;5111505;28;20541;-65
2021/12/23 04:30:44;;;;;;;16.58;10.68;;;-0.70;99.90;;;;;;5111235;28;20047;-65
2021/12/23 04:33:10;;;;;;;21.98;10.55;;;-0.70;99.90;;;;;;5110888;28;20043;-65
2021/12/23 04:35:36;;;;;;;18.50;12.57;;;-0.70;99.90;;;;;;5112580;28;20051;-65
2021/12/23 04:38:02;;;;;;;14.43;9.90;;;-0.70;99.90;;;;;;5112854;28;20143;-65
2021/12/23 04:40:30;;;;;;;18.27;10.77;;;-0.70;99.90;;;;;;5110530;28;20130;-65
2021/12/23 04:42:56;;;;;;;17.38;11.38;;;-0.70;99.90;;;;;;5110474;28;20055;-65
2021/12/23 04:45:22;;;;;;;16.55;11.05;;;-0.70;99.90;;;;;;5111058;28;20044;-65
2021/12/23 04:47:47;;;;;;;18.73;10.82;;;-0.70;99.90;;;;;;5111724;28;20066;-65
2021/12/23 04:50:14;;;;;;;17.58;10.88;;;-0.70;99.90;;;;;;5112608;28;20039;-65
2021/12/23 04:52:41;;;;;;;20.45;10.93;;;0.10;99.90;;;;;;5112112;28;20047;-65
2021/12/23 04:55:09;;;;;;;17.98;10.52;;;-0.50;99.90;;;;;;5110548;28;20072;-65
2021/12/23 04:57:35;;;;;;;17.90;12.20;;;-0.70;99.90;;;;;;5112029;28;20071;-65
2021/12/23 05:00:01;;;;;;;20.58;11.43;;;-0.70;99.90;;;;;;5112136;28;20486;-65
2021/12/23 05:02:26;;;;;;;17.20;11.23;;;-0.70;99.90;;;;;;5074532;28;20040;-65
2021/12/23 05:04:52;;;;;;;20.17;12.07;;;-0.50;99.90;;;;;;5095164;28;20379;-65
2021/12/23 05:07:18;;;;;;;19.70;12.40;;;-0.60;99.90;;;;;;5099853;28;20054;-65
2021/12/23 05:09:45;;;;;;;23.35;13.90;;;-0.60;99.90;;;;;;5090919;28;20052;-65
2021/12/23 05:12:10;;;;;;;17.35;11.57;;;-0.60;99.90;;;;;;5101510;28;20052;-65
2021/12/23 05:14:36;;;;;;;18.50;11.63;;;-0.60;99.90;;;;;;5127040;27;20371;-65
2021/12/23 05:17:02;;;;;;;23.50;12.50;;;-0.60;99.90;;;;;;5111976;28;20065;-65
2021/12/23 05:19:27;;;;;;;17.55;11.10;;;-0.50;99.90;;;;;;5112064;28;20101;-65
2021/12/23 05:21:53;;;;;;;22.13;11.25;;;-0.20;99.90;;;;;;5105739;28;20055;-65
2021/12/23 05:24:20;;;;;;;18.40;11.77;;;-0.50;99.90;;;;;;5103700;28;20048;-65
2021/12/23 05:26:46;;;;;;;17.42;10.75;;;-0.50;99.90;;;;;;5099688;28;20052;-65
2021/12/23 05:29:12;;;;;;;16.52;10.70;;;-0.30;99.90;;;;;;5110119;28;20050;-65
2021/12/23 05:31:38;;;;;;;17.42;10.95;;;-0.40;99.90;;;;;;5091296;28;20044;-65
2021/12/23 05:34:04;;;;;;;20.05;11.88;;;-0.30;99.90;;;;;;5090282;28;20059;-65
2021/12/23 05:36:30;;;;;;;20.15;13.32;;;-0.40;99.90;;;;;;5090399;28;20052;-65
2021/12/23 05:38:56;;;;;;;20.00;11.85;;;-0.40;99.90;;;;;;5091240;28;20047;-65
2021/12/23 05:41:26;;;;;;;20.20;13.38;;;-0.40;99.90;;;;;;5089801;28;20087;-65
2021/12/23 05:43:52;;;;;;;24.90;14.23;;;-0.30;99.90;;;;;;5099016;28;20489;-65
2021/12/23 05:46:18;;;;;;;24.05;12.73;;;-0.30;99.90;;;;;;5105521;28;20055;-65
2021/12/23 05:48:43;;;;;;;21.67;11.60;;;-0.30;99.90;;;;;;5109666;28;20043;-65
2021/12/23 05:51:09;;;;;;;19.00;11.13;;;-0.30;99.90;;;;;;5109274;28;20051;-65
2021/12/23 05:53:34;;;;;;;16.52;10.35;;;-0.30;99.90;;;;;;5098950;28;20131;-65
2021/12/23 05:56:00;;;;;;;18.15;10.75;;;-0.30;99.90;;;;;;5089785;28;20044;-65
2021/12/23 05:58:25;;;;;;;20.77;11.25;;;0.00;99.90;;;;;;5092626;28;20052;-65
2021/12/23 06:00:53;;;;;;;16.63;11.20;;;-0.30;99.90;;;;;;5098655;28;20043;-65
2021/12/23 06:03:19;;;;;;;19.58;11.52;;;-0.30;99.90;;;;;;5106563;28;20052;-66
2021/12/23 06:05:44;;;;;;;15.82;10.38;;;-0.30;99.90;;;;;;5108925;28;20050;-66
2021/12/23 06:08:10;;;;;;;16.35;11.38;;;-0.30;99.90;;;;;;5109846;28;20062;-65
2021/12/23 06:10:35;;;;;;;16.83;10.32;;;-0.10;99.90;;;;;;5110803;28;20052;-65
2021/12/23 06:13:01;;;;;;;23.88;13.05;;;-0.30;99.90;;;;;;5110663;28;20043;-65
2021/12/23 06:15:27;;;;;;;21.80;12.93;;;-0.30;99.90;;;;;;5110040;28;20032;-65
2021/12/23 06:17:52;;;;;;;20.23;12.63;;;-0.20;99.90;;;;;;5110157;28;20069;-65
2021/12/23 06:20:18;;;;;;;19.10;11.63;;;-0.30;99.90;;;;;;5111185;28;20094;-65
2021/12/23 06:22:44;;;;;;;21.58;13.38;;;-0.30;99.90;;;;;;5110795;28;20047;-65
2021/12/23 06:25:11;;;;;;;20.35;13.00;;;-0.20;99.90;;;;;;5108974;28;20051;-65
2021/12/23 06:27:37;;;;;;;24.27;12.48;;;-0.20;99.90;;;;;;5110818;28;20050;-65
2021/12/23 06:30:14;;;;;;;16.13;11.45;;;-0.30;99.90;;;;;;5099184;28;20040;-65
2021/12/23 06:32:39;;;;;;;22.15;13.68;;;-0.30;99.90;;;;;;5102500;28;20050;-65
2021/12/23 06:35:05;;;;;;;18.60;12.50;;;-0.10;99.90;;;;;;5108788;28;20075;-65
2021/12/23 06:37:31;;;;;;;22.05;13.40;;;-0.30;99.90;;;;;;5089163;28;20044;-65
2021/12/23 06:39:57;;;;;;;24.40;14.02;;;-0.20;99.90;;;;;;5088386;28;20052;-65
2021/12/23 06:42:23;;;;;;;25.58;15.65;;;-0.20;99.90;;;;;;5089244;28;20052;-65
2021/12/23 06:44:49;;;;;;;25.83;14.57;;;-0.20;99.90;;;;;;5088917;28;20059;-65
2021/12/23 06:47:14;;;;;;;20.77;12.75;;;-0.20;99.90;;;;;;5088754;28;20048;-65
2021/12/23 06:49:40;;;;;;;21.85;14.35;;;-0.20;99.90;;;;;;5089075;28;20063;-65
2021/12/23 06:52:05;;;;;;;27.83;16.63;;;-0.20;99.90;;;;;;5090488;28;20520;-66
2021/12/23 06:54:31;;;;;;;23.52;14.05;;;-0.20;99.90;;;;;;5088081;28;20059;-66
2021/12/23 06:56:57;;;;;;;18.38;12.77;;;-0.20;99.90;;;;;;5089129;28;20052;-64
2021/12/23 06:59:22;;;;;;;28.20;14.98;;;-0.20;99.90;;;;;;5090553;28;20047;-64
2021/12/23 07:01:49;;;;;;;25.80;15.75;;;0.10;99.90;;;;;;5089563;28;20684;-64
2021/12/23 07:04:17;;;;;;;27.15;13.98;;;-0.20;99.90;;;;;;5090691;28;20059;-64
2021/12/23 07:06:56;;;;;;;26.70;13.88;;;-0.20;99.90;;;;;;5104481;28;20473;-64
2021/12/23 07:09:22;;;;;;;20.67;14.20;;;-0.10;99.90;;;;;;5105200;28;20126;-64
2021/12/23 07:11:47;;;;;;;21.27;14.50;;;-0.20;99.90;;;;;;5108448;28;20135;-64
2021/12/23 07:14:13;;;;;;;22.10;13.98;;;-0.20;99.90;;;;;;5102314;28;20036;-64
2021/12/23 07:16:40;;;;;;;19.77;13.40;;;0.10;99.90;;;;;;5093597;28;20044;-64
2021/12/23 07:19:06;;;;;;;24.63;14.60;;;-0.20;99.90;;;;;;5093942;28;20055;-64
2021/12/23 07:21:31;;;;;;;21.05;13.48;;;-0.20;99.90;;;;;;5092643;28;20048;-64
2021/12/23 07:23:57;;;;;;;24.52;14.65;;;-0.20;99.90;;;;;;5093639;28;20047;-64
2021/12/23 07:26:23;;;;;;;26.00;17.73;;;-0.10;99.90;;;;;;5093853;28;20047;-65
2021/12/23 07:28:48;;;;;;;31.88;15.02;;;-0.20;99.90;;;;;;5091334;28;20402;-64
2021/12/23 07:31:14;;;;;;;26.70;15.77;;;-0.20;99.90;;;;;;5097900;28;20473;-65
2021/12/23 07:33:39;;;;;;;30.63;16.48;;;-0.20;99.90;;;;;;5108568;28;20048;-64
2021/12/23 07:36:06;;;;;;;23.25;13.70;;;-0.20;99.90;;;;;;5091667;28;20060;-64
2021/12/23 07:38:32;;;;;;;22.85;16.05;;;-0.20;99.90;;;;;;5101461;28;20083;-65
2021/12/23 07:40:58;;;;;;;31.27;15.82;;;-0.20;99.90;;;;;;5113868;28;20047;-65
2021/12/23 07:46:03;;;;;;;25.77;16.33;;;-0.30;99.90;;;;;;5106599;28;20055;-65
2021/12/23 07:48:30;;;;;;;25.50;15.63;;;-0.20;99.90;;;;;;5094134;28;20447;-65
2021/12/23 07:50:57;;;;;;;22.67;15.73;;;-0.20;99.90;;;;;;5103781;28;20461;-65
2021/12/23 07:53:22;;;;;;;23.63;14.10;;;-0.20;99.90;;;;;;5091770;28;20083;-65
2021/12/23 07:55:48;;;;;;;22.83;14.48;;;-0.20;99.90;;;;;;5101307;28;20075;-65
2021/12/23 07:58:14;;;;;;;27.00;16.15;;;0.00;99.90;;;;;;5111510;28;20040;-64
2021/12/23 08:00:39;;;;;;;32.75;16.73;;;-0.20;99.90;;;;;;5103915;28;20090;-65
2021/12/23 08:03:05;;;;;;;23.98;15.88;;;0.00;99.90;;;;;;5095672;28;20059;-65
2021/12/23 08:05:31;;;;;;;24.52;15.70;;;-0.30;99.90;;;;;;5099349;28;20117;-64
2021/12/23 08:07:57;;;;;;;26.15;15.52;;;-0.30;99.90;;;;;;5098505;28;20378;-65
2021/12/23 08:10:23;;;;;;;26.88;17.17;;;-0.30;99.90;;;;;;5094544;28;20090;-65
2021/12/23 08:12:49;;;;;;;29.55;17.73;;;-0.30;99.90;;;;;;5108078;28;20140;-65
2021/12/23 08:15:15;;;;;;;27.45;15.48;;;-0.20;99.90;;;;;;5096797;28;20536;-65
2021/12/23 08:17:40;;;;;;;23.35;14.27;;;-0.20;99.90;;;;;;5094182;28;20132;-65
2021/12/23 08:20:07;;;;;;;40.85;23.20;;;-0.20;99.90;;;;;;5111812;28;20048;-65
2021/12/23 08:22:33;;;;;;;30.05;18.77;;;-0.20;99.90;;;;;;5088366;28;20483;-64
2021/12/23 08:24:59;;;;;;;33.53;20.80;;;-0.20;99.90;;;;;;5090137;28;20055;-65
2021/12/23 08:27:27;;;;;;;26.52;17.17;;;-0.20;99.90;;;;;;5113071;28;20134;-64
2021/12/23 08:29:53;;;;;;;28.17;18.58;;;-0.10;99.90;;;;;;5095147;28;20056;-65
2021/12/23 08:32:20;;;;;;;32.20;18.52;;;-0.30;99.90;;;;;;5096414;28;20036;-65
2021/12/23 08:34:46;;;;;;;30.35;17.50;;;-0.30;99.90;;;;;;5092335;28;20162;-66
2021/12/23 08:37:12;;;;;;;31.27;18.60;;;-0.30;99.90;;;;;;5091336;28;20058;-66
2021/12/23 08:39:39;;;;;;;25.63;16.40;;;-0.30;99.90;;;;;;5096584;28;20051;-66
2021/12/23 08:42:05;;;;;;;25.00;15.57;;;-0.30;99.90;;;;;;5095133;28;20060;-64
2021/12/23 08:44:31;;;;;;;26.77;16.38;;;-0.30;99.90;;;;;;5109149;27;20044;-64
2021/12/23 08:46:57;;;;;;;23.27;15.13;;;-0.30;99.90;;;;;;5100629;28;20052;-66
2021/12/23 08:49:22;;;;;;;25.60;15.15;;;-0.10;99.90;;;;;;5101620;28;20367;-65
2021/12/23 08:51:48;;;;;;;32.45;19.88;;;-0.30;99.90;;;;;;5102000;28;20782;-66
2021/12/23 08:54:13;;;;;;;29.30;17.05;;;-0.20;99.90;;;;;;5103162;28;20178;-65
2021/12/23 08:56:39;;;;;;;28.60;15.48;;;-0.20;99.90;;;;;;5104615;28;20043;-65
2021/12/23 08:59:05;;;;;;;28.33;14.90;;;0.00;99.90;;;;;;5113317;28;20434;-70
2021/12/23 09:01:31;;;;;;;29.00;17.73;;;-0.30;99.90;;;;;;5103581;28;20441;-68
2021/12/23 09:03:56;;;;;;;27.98;16.70;;;-0.20;99.90;;;;;;5092848;28;20048;-77
2021/12/23 09:06:22;;;;;;;28.55;17.83;;;-0.20;99.90;;;;;;5091680;28;20040;-65
2021/12/23 09:08:48;;;;;;;33.22;16.77;;;-0.20;99.90;;;;;;5091194;28;20043;-65
2021/12/23 09:11:13;;;;;;;28.00;15.65;;;0.00;99.90;;;;;;5095293;28;20047;-65
2021/12/23 09:13:39;;;;;;;28.55;17.52;;;0.10;99.90;;;;;;5104900;28;20051;-65
2021/12/23 09:16:05;;;;;;;29.75;17.85;;;-0.20;99.90;;;;;;5093280;28;20084;-65
2021/12/23 09:18:30;;;;;;;30.98;18.30;;;-0.10;99.90;;;;;;5099718;28;20066;-71
2021/12/23 09:20:57;;;;;;;32.88;19.98;;;-0.10;99.90;;;;;;5100825;28;20047;-64
2021/12/23 09:23:23;;;;;;;30.08;18.67;;;0.00;99.90;;;;;;5105741;28;20520;-65
2021/12/23 09:25:51;;;;;;;31.05;16.58;;;-0.20;99.90;;;;;;5087414;28;20202;-64
2021/12/23 09:28:28;;;;;;;33.60;21.08;;;-0.10;99.90;;;;;;5096489;28;20402;-65
2021/12/23 09:33:41;;;;;;;32.72;19.15;;;0.10;99.90;;;;;;5110616;28;20590;-65
2021/12/23 09:36:06;;;;;;;34.13;20.02;;;-0.20;99.90;;;;;;5099071;28;20048;-65
2021/12/23 09:38:32;;;;;;;29.00;17.58;;;-0.10;99.90;;;;;;5083224;28;20043;-65
2021/12/23 09:41:08;;;;;;;33.00;18.90;;;-0.20;99.90;;;;;;5081289;28;20093;-65
2021/12/23 09:43:36;;;;;;;35.85;21.00;;;-0.20;99.90;;;;;;5087200;28;20093;-65
2021/12/23 09:46:03;;;;;;;33.40;21.38;;;-0.20;99.90;;;;;;5089434;28;20051;-66
2021/12/23 09:48:31;;;;;;;36.33;21.20;;;-0.10;99.90;;;;;;5088179;28;20440;-66
2021/12/23 09:51:00;;;;;;;41.88;23.45;;;-0.10;99.90;;;;;;5085736;28;20089;-66
2021/12/23 09:53:26;;;;;;;36.67;21.67;;;0.10;99.90;;;;;;5085832;28;20051;-65
2021/12/23 09:55:52;;;;;;;40.83;24.00;;;-0.10;99.90;;;;;;5090555;28;20048;-66
2021/12/23 09:58:18;;;;;;;46.08;24.77;;;-0.10;99.90;;;;;;5090027;28;20121;-65
2021/12/23 10:00:45;;;;;;;36.33;21.13;;;0.00;99.90;;;;;;5099643;28;20095;-65
2021/12/23 10:03:16;;;;;;;41.58;23.58;;;-0.10;99.90;;;;;;5100862;28;20044;-65
2021/12/23 10:05:43;;;;;;;42.83;23.45;;;-0.10;99.90;;;;;;5096544;28;20048;-66
2021/12/23 10:08:11;;;;;;;37.17;22.05;;;-0.10;99.90;;;;;;5087441;28;20411;-65
2021/12/23 10:10:47;;;;;;;43.45;24.50;;;-0.10;99.90;;;;;;5084303;28;20048;-65
2021/12/23 10:32:31;;;;;;;45.67;24.88;;;0.00;99.90;;;;;;5103578;28;20499;-65
2021/12/23 10:38:05;;;;;;;52.30;25.92;;;0.00;99.90;;;;;;5087881;28;20044;-66
2021/12/23 10:40:32;;;;;;;52.92;27.20;;;0.00;99.90;;;;;;5091079;28;20046;-66
2021/12/23 10:42:58;;;;;;;52.13;28.15;;;0.00;99.90;;;;;;5093278;28;20543;-66
2021/12/23 10:45:24;;;;;;;47.35;26.67;;;0.00;99.90;;;;;;5093425;28;20044;-66
2021/12/23 10:48:03;;;;;;;51.28;26.02;;;0.10;99.90;;;;;;5093295;28;20032;-66
2021/12/23 10:50:39;;;;;;;51.85;28.15;;;0.00;99.90;;;;;;5109739;28;20483;-66
2021/12/23 10:53:11;;;;;;;45.53;24.88;;;0.10;99.90;;;;;;5091916;28;20085;-63
2021/12/23 10:58:23;;;;;;;84.63;30.98;;;0.00;99.90;;;;;;5088433;28;20086;-63
2021/12/23 11:00:54;;;;;;;63.35;33.30;;;0.10;99.90;;;;;;5091949;28;20435;-64
2021/12/23 11:03:35;;;;;;;59.00;30.92;;;0.10;99.90;;;;;;5092409;28;20089;-64
2021/12/23 11:11:31;;;;;;;55.50;28.63;;;0.10;99.90;;;;;;5094603;28;20143;-65
2021/12/23 11:39:06;;;;;;;110.05;33.13;;;0.30;99.90;;;;;;5093074;28;20059;-65
2021/12/23 11:41:35;;;;;;;57.83;28.60;;;0.10;99.90;;;;;;5084202;28;20402;-65
2021/12/23 11:44:06;;;;;;;47.05;26.13;;;0.20;99.90;;;;;;5091742;28;20044;-65
2021/12/23 11:46:48;;;;;;;54.55;25.73;;;0.10;99.90;;;;;;5091040;28;20178;-65
2021/12/23 11:49:15;;;;;;;57.55;27.98;;;0.10;99.90;;;;;;5090508;28;20060;-65
2021/12/23 11:54:37;;;;;;;50.90;27.63;;;0.10;99.90;;;;;;5102333;28;20055;-65
2021/12/23 11:57:25;;;;;;;55.75;27.23;;;0.10;99.90;;;;;;5088351;28;20044;-65
2021/12/23 12:00:02;;;;;;;50.40;26.40;;;0.10;99.90;;;;;;5089842;28;20063;-65
2021/12/23 12:02:29;;;;;;;52.25;25.75;;;0.20;99.90;;;;;;5086530;28;20060;-66
2021/12/23 12:05:00;;;;;;;51.72;25.45;;;0.20;99.90;;;;;;5082581;28;20241;-66
2021/12/23 12:07:26;;;;;;;49.10;25.63;;;0.20;99.90;;;;;;5091089;28;20049;-66
2021/12/23 12:10:00;;;;;;;51.42;27.40;;;0.20;99.90;;;;;;5108257;28;20089;-66
2021/12/23 12:12:27;;;;;;;51.85;25.77;;;0.30;99.90;;;;;;5091789;28;20071;-64
2021/12/23 12:14:55;;;;;;;57.95;29.77;;;0.30;99.90;;;;;;5095580;28;20048;-65
2021/12/23 12:17:23;;;;;;;98.15;31.63;;;0.30;99.90;;;;;;5112577;28;20177;-65
2021/12/23 12:20:03;;;;;;;50.17;25.13;;;0.30;99.90;;;;;;5112138;28;20055;-65
2021/12/23 12:22:48;;;;;;;49.95;26.73;;;0.30;99.90;;;;;;5091935;28;20043;-64
2021/12/23 12:25:23;;;;;;;46.88;25.55;;;0.40;99.90;;;;;;5086127;28;20475;-65
2021/12/23 12:27:49;;;;;;;57.00;29.00;;;0.40;99.90;;;;;;5081981;28;20455;-65
2021/12/23 12:30:21;;;;;;;47.20;26.33;;;0.40;99.90;;;;;;5104565;28;20052;-66
2021/12/23 12:32:47;;;;;;;49.78;23.85;;;0.60;99.90;;;;;;5106309;27;20040;-65
2021/12/23 12:35:20;;;;;;;56.72;28.20;;;0.50;99.90;;;;;;5106510;28;20100;-66
2021/12/23 12:37:50;;;;;;;47.17;23.88;;;0.40;99.90;;;;;;5086221;28;20068;-66
2021/12/23 12:40:16;;;;;;;59.08;28.27;;;0.50;99.90;;;;;;5091680;28;20406;-66
2021/12/23 12:42:46;;;;;;;52.88;27.92;;;0.70;99.90;;;;;;5097404;28;20050;-66
2021/12/23 12:45:24;;;;;;;56.10;29.27;;;0.40;99.90;;;;;;5112831;28;20052;-66
2021/12/23 12:47:55;;;;;;;52.58;26.20;;;0.50;99.90;;;;;;5113175;28;20040;-65
2021/12/23 12:50:27;;;;;;;59.17;28.43;;;0.50;99.90;;;;;;5113306;28;20602;-66
2021/12/23 12:53:00;;;;;;;55.92;27.45;;;0.50;99.90;;;;;;5106328;28;20039;-66
2021/12/23 12:55:27;;;;;;;49.63;25.80;;;0.50;99.90;;;;;;5090489;28;20490;-66
2021/12/23 12:57:58;;;;;;;58.60;27.70;;;0.50;99.90;;;;;;5093559;28;20055;-66
2021/12/23 13:00:39;;;;;;;50.03;27.80;;;0.50;99.90;;;;;;5085377;28;20048;-66
2021/12/23 13:03:06;;;;;;;54.65;27.52;;;0.50;99.90;;;;;;5091499;28;20820;-67
2021/12/23 13:05:43;;;;;;;52.45;27.40;;;0.50;99.90;;;;;;5092226;28;20050;-66
2021/12/23 13:08:14;;;;;;;59.38;29.08;;;0.50;99.90;;;;;;5112041;28;20104;-66
2021/12/23 13:10:46;;;;;;;55.97;29.65;;;0.50;99.90;;;;;;5112414;28;20513;-65
2021/12/23 13:13:33;;;;;;;51.97;25.92;;;0.50;99.90;;;;;;5112353;28;20047;-65
2021/12/23 13:16:21;;;;;;;53.83;26.10;;;0.50;99.90;;;;;;5111825;28;20044;-65
2021/12/23 13:18:48;;;;;;;49.97;25.23;;;0.50;99.90;;;;;;5112091;28;20072;-64
2021/12/23 13:21:23;;;;;;;55.67;28.00;;;0.50;99.90;;;;;;5083537;28;20076;-65
2021/12/23 13:23:49;;;;;;;55.17;30.00;;;0.60;99.90;;;;;;5071699;28;20056;-65
2021/12/23 13:26:17;;;;;;;52.47;26.65;;;0.50;99.90;;;;;;5076412;28;20061;-65
2021/12/23 13:28:53;;;;;;;53.38;26.15;;;0.50;99.90;;;;;;5111813;28;20043;-65
2021/12/23 13:31:29;;;;;;;53.80;26.90;;;0.50;99.90;;;;;;5111507;28;20493;-65
2021/12/23 13:34:12;;;;;;;51.88;26.25;;;0.50;99.90;;;;;;5098327;28;20047;-65
2021/12/23 13:36:44;;;;;;;49.55;24.98;;;0.70;99.90;;;;;;5091954;28;20040;-65
2021/12/23 13:39:12;;;;;;;65.32;31.13;;;0.50;99.90;;;;;;5092445;28;20048;-65
2021/12/23 13:41:49;;;;;;;73.70;31.60;;;0.80;99.90;;;;;;5091118;28;20052;-64